sensor_id;sensor_type;location;lat;lon;timestamp;pressure;altitude;pressure_sealevel;temperature;humidity
71889;BME280;59762;49.998;14.858;2023-10-31T00:02:08;95222.88;;;14.35;100.00
71889;BME280;59762;49.998;14.858;2023-10-31T00:04:34;95218.91;;;14.38;100.00
71889;BME280;59762;49.998;14.858;2023-10-31T00:06:59;95218.69;;;14.39;100.00
71889;BME280;59762;49.998;14.858;2023-10-31T00:09:25;95222.38;;;14.38;100.00
71889;BME280;59762;49.998;14.858;2023-10-31T00:11:51;95223.91;;;14.34;100.00
71889;BME280;59762;49.998;14.858;2023-10-31T00:14:16;95212.38;;;14.34;100.00
71889;BME280;59762;49.998;14.858;2023-10-31T00:16:42;95208.06;;;14.33;100.00
71889;BME280;59762;49.998;14.858;2023-10-31T00:19:08;95211.19;;;14.30;100.00
71889;BME280;59762;49.998;14.858;2023-10-31T00:21:33;95212.72;;;14.26;100.00
71889;BME280;59762;49.998;14.858;2023-10-31T00:23:59;95210.03;;;14.26;100.00
71889;BME280;59762;49.998;14.858;2023-10-31T00:26:25;95204.06;;;14.24;100.00
71889;BME280;59762;49.998;14.858;2023-10-31T00:28:50;95204.19;;;14.29;100.00
71889;BME280;59762;49.998;14.858;2023-10-31T00:31:16;95209.19;;;14.25;100.00
71889;BME280;59762;49.998;14.858;2023-10-31T00:33:42;95206.59;;;14.19;100.00
71889;BME280;59762;49.998;14.858;2023-10-31T00:36:08;95206.84;;;14.17;100.00
71889;BME280;59762;49.998;14.858;2023-10-31T00:38:33;95213.63;;;14.20;100.00
71889;BME280;59762;49.998;14.858;2023-10-31T00:40:59;95216.69;;;14.23;100.00
71889;BME280;59762;49.998;14.858;2023-10-31T00:43:25;95209.09;;;14.20;100.00
71889;BME280;59762;49.998;14.858;2023-10-31T00:45:51;95215.28;;;14.21;100.00
71889;BME280;59762;49.998;14.858;2023-10-31T00:48:16;95224.97;;;14.22;100.00
71889;BME280;59762;49.998;14.858;2023-10-31T00:50:43;95228.91;;;14.19;100.00
71889;BME280;59762;49.998;14.858;2023-10-31T00:53:08;95232.03;;;14.16;100.00
71889;BME280;59762;49.998;14.858;2023-10-31T00:55:34;95231.94;;;14.11;100.00
71889;BME280;59762;49.998;14.858;2023-10-31T00:58:00;95233.78;;;14.11;100.00
71889;BME280;59762;49.998;14.858;2023-10-31T01:00:26;95229.13;;;14.06;100.00
71889;BME280;59762;49.998;14.858;2023-10-31T01:02:51;95235.06;;;14.08;100.00
71889;BME280;59762;49.998;14.858;2023-10-31T01:05:17;95230.97;;;14.06;100.00
71889;BME280;59762;49.998;14.858;2023-10-31T01:07:43;95232.97;;;13.99;100.00
71889;BME280;59762;49.998;14.858;2023-10-31T01:10:09;95233.66;;;13.94;100.00
71889;BME280;59762;49.998;14.858;2023-10-31T01:12:36;95229.56;;;13.92;100.00
71889;BME280;59762;49.998;14.858;2023-10-31T01:15:02;95234.00;;;13.86;100.00
71889;BME280;59762;49.998;14.858;2023-10-31T01:17:28;95236.69;;;13.86;100.00
71889;BME280;59762;49.998;14.858;2023-10-31T01:19:54;95238.56;;;13.86;100.00
71889;BME280;59762;49.998;14.858;2023-10-31T01:22:19;95238.19;;;13.82;100.00
71889;BME280;59762;49.998;14.858;2023-10-31T01:24:45;95241.13;;;13.81;100.00
71889;BME280;59762;49.998;14.858;2023-10-31T01:27:11;95256.16;;;13.82;100.00
71889;BME280;59762;49.998;14.858;2023-10-31T01:29:36;95278.69;;;13.92;100.00
71889;BME280;59762;49.998;14.858;2023-10-31T01:32:02;95297.72;;;14.02;100.00
71889;BME280;59762;49.998;14.858;2023-10-31T01:34:28;95306.50;;;14.09;100.00
71889;BME280;59762;49.998;14.858;2023-10-31T01:36:53;95316.97;;;14.11;100.00
71889;BME280;59762;49.998;14.858;2023-10-31T01:39:19;95312.22;;;14.13;100.00
71889;BME280;59762;49.998;14.858;2023-10-31T01:41:45;95313.25;;;14.00;100.00
71889;BME280;59762;49.998;14.858;2023-10-31T01:44:10;95320.34;;;13.95;100.00
71889;BME280;59762;49.998;14.858;2023-10-31T01:46:36;95328.50;;;13.88;100.00
71889;BME280;59762;49.998;14.858;2023-10-31T01:49:02;95325.19;;;13.86;100.00
71889;BME280;59762;49.998;14.858;2023-10-31T01:51:28;95310.16;;;13.85;100.00
71889;BME280;59762;49.998;14.858;2023-10-31T01:53:55;95320.03;;;13.73;100.00
71889;BME280;59762;49.998;14.858;2023-10-31T01:56:22;95311.97;;;13.73;100.00
71889;BME280;59762;49.998;14.858;2023-10-31T01:58:49;95302.63;;;13.64;100.00
71889;BME280;59762;49.998;14.858;2023-10-31T02:01:15;95305.78;;;13.61;100.00
71889;BME280;59762;49.998;14.858;2023-10-31T02:03:41;95304.00;;;13.55;100.00
71889;BME280;59762;49.998;14.858;2023-10-31T02:06:07;95308.78;;;13.53;100.00
71889;BME280;59762;49.998;14.858;2023-10-31T02:08:33;95314.28;;;13.58;100.00
71889;BME280;59762;49.998;14.858;2023-10-31T02:10:58;95312.84;;;13.56;100.00
71889;BME280;59762;49.998;14.858;2023-10-31T02:13:24;95310.97;;;13.56;100.00
71889;BME280;59762;49.998;14.858;2023-10-31T02:15:50;95300.59;;;13.48;100.00
71889;BME280;59762;49.998;14.858;2023-10-31T02:18:16;95302.09;;;13.44;100.00
71889;BME280;59762;49.998;14.858;2023-10-31T02:20:42;95302.09;;;13.44;100.00
71889;BME280;59762;49.998;14.858;2023-10-31T02:23:08;95310.72;;;13.46;100.00
71889;BME280;59762;49.998;14.858;2023-10-31T02:25:33;95316.69;;;13.48;100.00
71889;BME280;59762;49.998;14.858;2023-10-31T02:27:59;95322.03;;;13.48;100.00
71889;BME280;59762;49.998;14.858;2023-10-31T02:30:25;95319.94;;;13.50;100.00
71889;BME280;59762;49.998;14.858;2023-10-31T02:32:51;95335.06;;;13.45;100.00
71889;BME280;59762;49.998;14.858;2023-10-31T02:35:17;95332.16;;;13.46;100.00
71889;BME280;59762;49.998;14.858;2023-10-31T02:37:47;95340.81;;;13.48;100.00
71889;BME280;59762;49.998;14.858;2023-10-31T02:40:13;95349.25;;;13.34;100.00
71889;BME280;59762;49.998;14.858;2023-10-31T02:42:39;95343.34;;;13.25;100.00
71889;BME280;59762;49.998;14.858;2023-10-31T02:45:05;95353.50;;;13.23;100.00
71889;BME280;59762;49.998;14.858;2023-10-31T02:47:31;95354.75;;;13.21;100.00
71889;BME280;59762;49.998;14.858;2023-10-31T02:49:56;95357.94;;;13.11;100.00
71889;BME280;59762;49.998;14.858;2023-10-31T02:52:22;95359.72;;;12.99;100.00
71889;BME280;59762;49.998;14.858;2023-10-31T02:54:48;95376.28;;;12.90;100.00
71889;BME280;59762;49.998;14.858;2023-10-31T02:57:15;95372.41;;;12.86;100.00
71889;BME280;59762;49.998;14.858;2023-10-31T02:59:41;95382.53;;;12.84;100.00
71889;BME280;59762;49.998;14.858;2023-10-31T03:02:06;95377.63;;;12.81;100.00
71889;BME280;59762;49.998;14.858;2023-10-31T03:04:32;95380.13;;;12.76;100.00
71889;BME280;59762;49.998;14.858;2023-10-31T03:06:58;95383.91;;;12.68;100.00
71889;BME280;59762;49.998;14.858;2023-10-31T03:09:24;95394.47;;;12.63;100.00
71889;BME280;59762;49.998;14.858;2023-10-31T03:11:49;95389.81;;;12.52;100.00
71889;BME280;59762;49.998;14.858;2023-10-31T03:14:15;95403.19;;;12.52;100.00
71889;BME280;59762;49.998;14.858;2023-10-31T03:16:41;95397.09;;;12.45;100.00
71889;BME280;59762;49.998;14.858;2023-10-31T03:19:07;95396.72;;;12.42;100.00
71889;BME280;59762;49.998;14.858;2023-10-31T03:21:32;95408.44;;;12.41;100.00
71889;BME280;59762;49.998;14.858;2023-10-31T03:23:58;95418.81;;;12.31;100.00
71889;BME280;59762;49.998;14.858;2023-10-31T03:26:24;95418.22;;;12.29;100.00
71889;BME280;59762;49.998;14.858;2023-10-31T03:28:50;95416.56;;;12.28;100.00
71889;BME280;59762;49.998;14.858;2023-10-31T03:31:16;95425.41;;;12.28;100.00
71889;BME280;59762;49.998;14.858;2023-10-31T03:33:42;95423.66;;;12.16;100.00
71889;BME280;59762;49.998;14.858;2023-10-31T03:36:10;95428.19;;;12.15;100.00
71889;BME280;59762;49.998;14.858;2023-10-31T03:38:36;95423.03;;;12.14;100.00
71889;BME280;59762;49.998;14.858;2023-10-31T03:41:03;95426.56;;;12.14;100.00
71889;BME280;59762;49.998;14.858;2023-10-31T03:43:28;95418.13;;;12.11;100.00
71889;BME280;59762;49.998;14.858;2023-10-31T03:45:54;95416.09;;;12.06;100.00
71889;BME280;59762;49.998;14.858;2023-10-31T03:48:20;95418.81;;;12.00;100.00
71889;BME280;59762;49.998;14.858;2023-10-31T03:50:46;95411.59;;;12.00;100.00
71889;BME280;59762;49.998;14.858;2023-10-31T03:53:12;95401.72;;;12.01;100.00
71889;BME280;59762;49.998;14.858;2023-10-31T03:55:37;95417.59;;;11.96;100.00
71889;BME280;59762;49.998;14.858;2023-10-31T03:58:03;95412.47;;;11.94;100.00
71889;BME280;59762;49.998;14.858;2023-10-31T04:00:29;95409.63;;;11.89;100.00
71889;BME280;59762;49.998;14.858;2023-10-31T04:02:55;95413.97;;;11.84;100.00
71889;BME280;59762;49.998;14.858;2023-10-31T04:05:21;95423.63;;;11.85;100.00
71889;BME280;59762;49.998;14.858;2023-10-31T04:07:48;95425.69;;;11.83;100.00
71889;BME280;59762;49.998;14.858;2023-10-31T04:10:15;95416.66;;;11.77;100.00
71889;BME280;59762;49.998;14.858;2023-10-31T04:12:41;95420.38;;;11.76;100.00
71889;BME280;59762;49.998;14.858;2023-10-31T04:15:08;95421.59;;;11.80;100.00
71889;BME280;59762;49.998;14.858;2023-10-31T04:17:34;95422.00;;;11.84;100.00
71889;BME280;59762;49.998;14.858;2023-10-31T04:20:00;95432.94;;;11.76;100.00
71889;BME280;59762;49.998;14.858;2023-10-31T04:22:25;95430.69;;;11.73;100.00
71889;BME280;59762;49.998;14.858;2023-10-31T04:24:51;95427.41;;;11.71;100.00
71889;BME280;59762;49.998;14.858;2023-10-31T04:27:17;95432.75;;;11.71;100.00
71889;BME280;59762;49.998;14.858;2023-10-31T04:29:43;95437.88;;;11.72;100.00
71889;BME280;59762;49.998;14.858;2023-10-31T04:32:09;95429.28;;;11.70;100.00
71889;BME280;59762;49.998;14.858;2023-10-31T04:34:34;95431.16;;;11.63;100.00
71889;BME280;59762;49.998;14.858;2023-10-31T04:37:00;95432.38;;;11.67;100.00
71889;BME280;59762;49.998;14.858;2023-10-31T04:39:26;95439.75;;;11.65;100.00
71889;BME280;59762;49.998;14.858;2023-10-31T04:41:51;95454.34;;;11.69;100.00
71889;BME280;59762;49.998;14.858;2023-10-31T04:44:17;95458.25;;;11.67;100.00
71889;BME280;59762;49.998;14.858;2023-10-31T04:46:42;95453.13;;;11.65;100.00
71889;BME280;59762;49.998;14.858;2023-10-31T04:49:08;95471.03;;;11.65;100.00
71889;BME280;59762;49.998;14.858;2023-10-31T04:51:35;95470.41;;;11.63;100.00
71889;BME280;59762;49.998;14.858;2023-10-31T04:54:01;95458.72;;;11.64;100.00
71889;BME280;59762;49.998;14.858;2023-10-31T04:56:27;95472.06;;;11.64;100.00
71889;BME280;59762;49.998;14.858;2023-10-31T04:58:53;95468.97;;;11.60;100.00
71889;BME280;59762;49.998;14.858;2023-10-31T05:01:18;95479.84;;;11.59;100.00
71889;BME280;59762;49.998;14.858;2023-10-31T05:03:45;95480.69;;;11.59;100.00
71889;BME280;59762;49.998;14.858;2023-10-31T05:06:11;95486.88;;;11.53;100.00
71889;BME280;59762;49.998;14.858;2023-10-31T05:08:36;95490.78;;;11.57;100.00
71889;BME280;59762;49.998;14.858;2023-10-31T05:11:02;95503.53;;;11.49;100.00
71889;BME280;59762;49.998;14.858;2023-10-31T05:13:28;95497.16;;;11.50;100.00
71889;BME280;59762;49.998;14.858;2023-10-31T05:15:54;95511.13;;;11.52;100.00
71889;BME280;59762;49.998;14.858;2023-10-31T05:18:20;95508.84;;;11.55;100.00
71889;BME280;59762;49.998;14.858;2023-10-31T05:20:45;95496.94;;;11.51;100.00
71889;BME280;59762;49.998;14.858;2023-10-31T05:23:11;95505.16;;;11.56;100.00
71889;BME280;59762;49.998;14.858;2023-10-31T05:25:37;95510.50;;;11.56;100.00
71889;BME280;59762;49.998;14.858;2023-10-31T05:28:04;95514.19;;;11.55;100.00
71889;BME280;59762;49.998;14.858;2023-10-31T05:30:30;95526.53;;;11.50;100.00
71889;BME280;59762;49.998;14.858;2023-10-31T05:32:56;95530.44;;;11.54;100.00
71889;BME280;59762;49.998;14.858;2023-10-31T05:35:22;95541.34;;;11.52;100.00
71889;BME280;59762;49.998;14.858;2023-10-31T05:37:48;95547.72;;;11.51;100.00
71889;BME280;59762;49.998;14.858;2023-10-31T05:40:14;95553.06;;;11.51;100.00
71889;BME280;59762;49.998;14.858;2023-10-31T05:42:40;95547.09;;;11.56;100.00
71889;BME280;59762;49.998;14.858;2023-10-31T05:45:06;95557.81;;;11.49;100.00
71889;BME280;59762;49.998;14.858;2023-10-31T05:47:32;95561.09;;;11.51;100.00
71889;BME280;59762;49.998;14.858;2023-10-31T05:50:00;95556.16;;;11.48;100.00
71889;BME280;59762;49.998;14.858;2023-10-31T05:52:29;95562.53;;;11.47;100.00
71889;BME280;59762;49.998;14.858;2023-10-31T05:54:58;95574.06;;;11.48;100.00
71889;BME280;59762;49.998;14.858;2023-10-31T05:57:24;95586.78;;;11.46;100.00
71889;BME280;59762;49.998;14.858;2023-10-31T05:59:49;95600.97;;;11.53;100.00
71889;BME280;59762;49.998;14.858;2023-10-31T06:02:15;95598.72;;;11.50;100.00
71889;BME280;59762;49.998;14.858;2023-10-31T06:04:41;95595.44;;;11.54;100.00
71889;BME280;59762;49.998;14.858;2023-10-31T06:07:07;95603.06;;;11.64;100.00
71889;BME280;59762;49.998;14.858;2023-10-31T06:09:33;95611.28;;;11.62;100.00
71889;BME280;59762;49.998;14.858;2023-10-31T06:12:00;95614.97;;;11.61;100.00
71889;BME280;59762;49.998;14.858;2023-10-31T06:14:25;95620.09;;;11.63;100.00
71889;BME280;59762;49.998;14.858;2023-10-31T06:16:52;95625.66;;;11.61;100.00
71889;BME280;59762;49.998;14.858;2023-10-31T06:19:18;95627.91;;;11.64;100.00
71889;BME280;59762;49.998;14.858;2023-10-31T06:21:43;95642.13;;;11.65;100.00
71889;BME280;59762;49.998;14.858;2023-10-31T06:24:09;95635.34;;;11.69;100.00
71889;BME280;59762;49.998;14.858;2023-10-31T06:26:35;95650.13;;;11.71;100.00
71889;BME280;59762;49.998;14.858;2023-10-31T06:29:01;95649.50;;;11.69;100.00
71889;BME280;59762;49.998;14.858;2023-10-31T06:31:27;95645.19;;;11.75;100.00
71889;BME280;59762;49.998;14.858;2023-10-31T06:33:52;95646.41;;;11.72;100.00
71889;BME280;59762;49.998;14.858;2023-10-31T06:36:18;95646.00;;;11.82;100.00
71889;BME280;59762;49.998;14.858;2023-10-31T06:38:43;95652.81;;;11.78;100.00
71889;BME280;59762;49.998;14.858;2023-10-31T06:41:09;95654.84;;;11.82;100.00
71889;BME280;59762;49.998;14.858;2023-10-31T06:43:35;95641.88;;;11.86;100.00
71889;BME280;59762;49.998;14.858;2023-10-31T06:46:01;95637.97;;;11.88;100.00
71889;BME280;59762;49.998;14.858;2023-10-31T06:48:29;95637.09;;;12.01;100.00
71889;BME280;59762;49.998;14.858;2023-10-31T06:50:55;95634.03;;;12.04;100.00
71889;BME280;59762;49.998;14.858;2023-10-31T06:53:21;95647.41;;;12.04;100.00
71889;BME280;59762;49.998;14.858;2023-10-31T06:55:46;95655.22;;;12.05;100.00
71889;BME280;59762;49.998;14.858;2023-10-31T06:58:12;95656.22;;;12.11;100.00
71889;BME280;59762;49.998;14.858;2023-10-31T07:00:38;95651.47;;;12.19;100.00
71889;BME280;59762;49.998;14.858;2023-10-31T07:03:04;95665.22;;;12.29;100.00
71889;BME280;59762;49.998;14.858;2023-10-31T07:05:35;95652.50;;;12.18;100.00
71889;BME280;59762;49.998;14.858;2023-10-31T07:08:01;95663.22;;;12.12;100.00
71889;BME280;59762;49.998;14.858;2023-10-31T07:10:29;95680.72;;;12.14;100.00
71889;BME280;59762;49.998;14.858;2023-10-31T07:12:55;95691.59;;;12.19;100.00
71889;BME280;59762;49.998;14.858;2023-10-31T07:15:20;95697.59;;;12.08;100.00
71889;BME280;59762;49.998;14.858;2023-10-31T07:17:46;95701.50;;;12.06;100.00
71889;BME280;59762;49.998;14.858;2023-10-31T07:20:12;95702.13;;;12.01;100.00
71889;BME280;59762;49.998;14.858;2023-10-31T07:22:38;95699.66;;;12.00;100.00
71889;BME280;59762;49.998;14.858;2023-10-31T07:25:06;95705.41;;;12.03;100.00
71889;BME280;59762;49.998;14.858;2023-10-31T07:27:32;95716.75;;;11.92;100.00
71889;BME280;59762;49.998;14.858;2023-10-31T07:29:58;95712.66;;;11.96;100.00
71889;BME280;59762;49.998;14.858;2023-10-31T07:32:23;95713.84;;;11.94;100.00
71889;BME280;59762;49.998;14.858;2023-10-31T07:34:49;95733.22;;;11.96;100.00
71889;BME280;59762;49.998;14.858;2023-10-31T07:37:15;95743.91;;;11.96;100.00
71889;BME280;59762;49.998;14.858;2023-10-31T07:39:41;95744.94;;;11.95;100.00
71889;BME280;59762;49.998;14.858;2023-10-31T07:42:07;95742.06;;;11.90;100.00
71889;BME280;59762;49.998;14.858;2023-10-31T07:44:34;95735.50;;;11.79;100.00
71889;BME280;59762;49.998;14.858;2023-10-31T07:46:59;95732.81;;;11.73;100.00
71889;BME280;59762;49.998;14.858;2023-10-31T07:49:25;95742.28;;;11.69;100.00
71889;BME280;59762;49.998;14.858;2023-10-31T07:51:50;95740.59;;;11.68;100.00
71889;BME280;59762;49.998;14.858;2023-10-31T07:54:16;95729.50;;;11.64;100.00
71889;BME280;59762;49.998;14.858;2023-10-31T07:56:42;95731.97;;;11.66;100.00
71889;BME280;59762;49.998;14.858;2023-10-31T07:59:08;95729.09;;;11.67;100.00
71889;BME280;59762;49.998;14.858;2023-10-31T08:01:34;95721.09;;;11.74;100.00
71889;BME280;59762;49.998;14.858;2023-10-31T08:04:01;95723.56;;;11.82;100.00
71889;BME280;59762;49.998;14.858;2023-10-31T08:06:27;95728.72;;;11.77;100.00
71889;BME280;59762;49.998;14.858;2023-10-31T08:08:52;95716.78;;;11.73;100.00
71889;BME280;59762;49.998;14.858;2023-10-31T08:11:18;95727.03;;;11.76;100.00
71889;BME280;59762;49.998;14.858;2023-10-31T08:13:44;95720.25;;;11.80;100.00
71889;BME280;59762;49.998;14.858;2023-10-31T08:16:10;95728.47;;;11.78;100.00
71889;BME280;59762;49.998;14.858;2023-10-31T08:18:36;95747.63;;;11.88;100.00
71889;BME280;59762;49.998;14.858;2023-10-31T08:21:03;95754.59;;;11.96;100.00
71889;BME280;59762;49.998;14.858;2023-10-31T08:23:29;95760.34;;;11.99;100.00
71889;BME280;59762;49.998;14.858;2023-10-31T08:25:55;95775.59;;;11.92;100.00
71889;BME280;59762;49.998;14.858;2023-10-31T08:28:21;95794.72;;;12.02;100.00
71889;BME280;59762;49.998;14.858;2023-10-31T08:30:47;95810.78;;;12.15;100.00
71889;BME280;59762;49.998;14.858;2023-10-31T08:33:13;95834.22;;;12.00;100.00
71889;BME280;59762;49.998;14.858;2023-10-31T08:35:39;95844.13;;;12.06;100.00
71889;BME280;59762;49.998;14.858;2023-10-31T08:38:05;95853.78;;;11.94;100.00
71889;BME280;59762;49.998;14.858;2023-10-31T08:40:30;95868.00;;;12.01;100.00
71889;BME280;59762;49.998;14.858;2023-10-31T08:42:56;95869.22;;;11.99;100.00
71889;BME280;59762;49.998;14.858;2023-10-31T08:45:22;95873.13;;;11.96;100.00
71889;BME280;59762;49.998;14.858;2023-10-31T08:47:48;95879.91;;;11.99;100.00
71889;BME280;59762;49.998;14.858;2023-10-31T08:50:13;95876.22;;;12.06;100.00
71889;BME280;59762;49.998;14.858;2023-10-31T08:52:39;95868.38;;;11.92;100.00
71889;BME280;59762;49.998;14.858;2023-10-31T08:55:05;95864.09;;;12.17;100.00
71889;BME280;59762;49.998;14.858;2023-10-31T08:57:32;95860.97;;;12.13;100.00
71889;BME280;59762;49.998;14.858;2023-10-31T08:59:59;95847.19;;;12.16;100.00
71889;BME280;59762;49.998;14.858;2023-10-31T09:02:25;95858.31;;;12.20;100.00
71889;BME280;59762;49.998;14.858;2023-10-31T09:04:52;95854.81;;;12.13;100.00
71889;BME280;59762;49.998;14.858;2023-10-31T09:07:18;95862.22;;;12.24;100.00
71889;BME280;59762;49.998;14.858;2023-10-31T09:09:45;95865.31;;;12.27;100.00
71889;BME280;59762;49.998;14.858;2023-10-31T09:12:11;95858.53;;;12.44;100.00
71889;BME280;59762;49.998;14.858;2023-10-31T09:14:38;95860.78;;;12.47;100.00
71889;BME280;59762;49.998;14.858;2023-10-31T09:17:04;95875.00;;;12.35;100.00
71889;BME280;59762;49.998;14.858;2023-10-31T09:19:30;95878.91;;;12.45;100.00
71889;BME280;59762;49.998;14.858;2023-10-31T09:21:55;95873.94;;;12.16;100.00
71889;BME280;59762;49.998;14.858;2023-10-31T09:24:21;95872.91;;;12.24;100.00
71889;BME280;59762;49.998;14.858;2023-10-31T09:26:47;95873.56;;;12.13;100.00
71889;BME280;59762;49.998;14.858;2023-10-31T09:29:12;95888.56;;;12.01;100.00
71889;BME280;59762;49.998;14.858;2023-10-31T09:31:38;95878.91;;;12.13;100.00
71889;BME280;59762;49.998;14.858;2023-10-31T09:34:04;95880.31;;;12.02;100.00
71889;BME280;59762;49.998;14.858;2023-10-31T09:36:33;95884.66;;;12.16;100.00
71889;BME280;59762;49.998;14.858;2023-10-31T09:39:02;95859.53;;;12.04;100.00
71889;BME280;59762;49.998;14.858;2023-10-31T09:41:29;95880.72;;;12.06;100.00
71889;BME280;59762;49.998;14.858;2023-10-31T09:43:57;95894.72;;;11.88;100.00
71889;BME280;59762;49.998;14.858;2023-10-31T09:46:23;95889.16;;;11.83;100.00
71889;BME280;59762;49.998;14.858;2023-10-31T09:48:49;95886.88;;;11.87;100.00
71889;BME280;59762;49.998;14.858;2023-10-31T09:51:15;95876.81;;;12.02;100.00
71889;BME280;59762;49.998;14.858;2023-10-31T09:53:41;95877.84;;;12.07;100.00
71889;BME280;59762;49.998;14.858;2023-10-31T09:56:10;95866.75;;;12.17;100.00
71889;BME280;59762;49.998;14.858;2023-10-31T09:58:36;95872.72;;;12.06;100.00
71889;BME280;59762;49.998;14.858;2023-10-31T10:01:02;95865.50;;;12.00;100.00
71889;BME280;59762;49.998;14.858;2023-10-31T10:03:28;95863.63;;;11.94;100.00
71889;BME280;59762;49.998;14.858;2023-10-31T10:05:55;95877.25;;;11.92;100.00
71889;BME280;59762;49.998;14.858;2023-10-31T10:08:21;95873.94;;;11.97;100.00
71889;BME280;59762;49.998;14.858;2023-10-31T10:10:47;95872.47;;;11.88;100.00
71889;BME280;59762;49.998;14.858;2023-10-31T10:13:17;95881.16;;;11.90;100.00
71889;BME280;59762;49.998;14.858;2023-10-31T10:15:51;95870.22;;;11.91;100.00
71889;BME280;59762;49.998;14.858;2023-10-31T10:20:57;95872.06;;;11.84;100.00
71889;BME280;59762;49.998;14.858;2023-10-31T10:23:24;95865.28;;;11.82;100.00
71889;BME280;59762;49.998;14.858;2023-10-31T10:25:52;95864.66;;;11.86;100.00
71889;BME280;59762;49.998;14.858;2023-10-31T10:28:18;95859.28;;;11.73;100.00
71889;BME280;59762;49.998;14.858;2023-10-31T10:30:48;95857.66;;;11.72;100.00
71889;BME280;59762;49.998;14.858;2023-10-31T10:33:15;95868.91;;;11.61;100.00
71889;BME280;59762;49.998;14.858;2023-10-31T10:35:41;95869.38;;;11.78;100.00
71889;BME280;59762;49.998;14.858;2023-10-31T10:38:11;95868.94;;;11.68;100.00
71889;BME280;59762;49.998;14.858;2023-10-31T10:40:45;95863.44;;;11.89;100.00
71889;BME280;59762;49.998;14.858;2023-10-31T10:45:43;95859.97;;;12.08;100.00
71889;BME280;59762;49.998;14.858;2023-10-31T10:48:15;95857.50;;;12.26;100.00
71889;BME280;59762;49.998;14.858;2023-10-31T10:50:43;95872.13;;;12.30;100.00
71889;BME280;59762;49.998;14.858;2023-10-31T10:53:23;95886.53;;;12.16;100.00
71889;BME280;59762;49.998;14.858;2023-10-31T10:55:57;95903.38;;;12.23;100.00
71889;BME280;59762;49.998;14.858;2023-10-31T11:01:01;95932.19;;;12.08;100.00
71889;BME280;59762;49.998;14.858;2023-10-31T11:03:29;95940.41;;;12.00;100.00
71889;BME280;59762;49.998;14.858;2023-10-31T11:05:55;95940.63;;;12.05;100.00
71889;BME280;59762;49.998;14.858;2023-10-31T11:08:23;95942.69;;;11.96;100.00
71889;BME280;59762;49.998;14.858;2023-10-31T11:10:50;95937.31;;;11.96;100.00
71889;BME280;59762;49.998;14.858;2023-10-31T11:13:16;95937.75;;;12.06;100.00
71889;BME280;59762;49.998;14.858;2023-10-31T11:15:42;95941.47;;;12.05;100.00
71889;BME280;59762;49.998;14.858;2023-10-31T11:18:09;95941.69;;;12.17;100.00
71889;BME280;59762;49.998;14.858;2023-10-31T11:20:36;95943.53;;;12.16;100.00
71889;BME280;59762;49.998;14.858;2023-10-31T11:23:02;95951.34;;;12.18;100.00
71889;BME280;59762;49.998;14.858;2023-10-31T11:25:32;95964.75;;;12.24;100.00
71889;BME280;59762;49.998;14.858;2023-10-31T11:28:13;95982.25;;;12.33;100.00
71889;BME280;59762;49.998;14.858;2023-10-31T11:30:41;95984.50;;;12.23;100.00
71889;BME280;59762;49.998;14.858;2023-10-31T11:33:11;95993.59;;;12.35;100.00
71889;BME280;59762;49.998;14.858;2023-10-31T11:35:39;95990.06;;;12.22;100.00
71889;BME280;59762;49.998;14.858;2023-10-31T11:38:09;95988.59;;;12.06;100.00
71889;BME280;59762;49.998;14.858;2023-10-31T11:40:37;95984.88;;;12.07;100.00
71889;BME280;59762;49.998;14.858;2023-10-31T11:43:05;95976.00;;;12.00;100.00
71889;BME280;59762;49.998;14.858;2023-10-31T11:45:41;95965.06;;;11.89;100.00
71889;BME280;59762;49.998;14.858;2023-10-31T11:48:08;95967.34;;;11.92;100.00
71889;BME280;59762;49.998;14.858;2023-10-31T11:50:36;95971.22;;;11.83;100.00
71889;BME280;59762;49.998;14.858;2023-10-31T11:53:05;95962.34;;;11.82;100.00
71889;BME280;59762;49.998;14.858;2023-10-31T11:55:33;95958.25;;;11.86;100.00
71889;BME280;59762;49.998;14.858;2023-10-31T11:58:21;95956.63;;;11.92;100.00
71889;BME280;59762;49.998;14.858;2023-10-31T12:00:49;95957.50;;;12.05;100.00
71889;BME280;59762;49.998;14.858;2023-10-31T12:03:17;95981.78;;;12.04;100.00
71889;BME280;59762;49.998;14.858;2023-10-31T12:05:56;95971.41;;;11.81;100.00
71889;BME280;59762;49.998;14.858;2023-10-31T12:08:32;95974.50;;;11.85;100.00
71889;BME280;59762;49.998;14.858;2023-10-31T12:13:30;95960.88;;;11.73;100.00
71889;BME280;59762;49.998;14.858;2023-10-31T12:15:55;95968.69;;;11.68;100.00
71889;BME280;59762;49.998;14.858;2023-10-31T12:18:22;95966.63;;;11.64;100.00
71889;BME280;59762;49.998;14.858;2023-10-31T12:20:51;95970.25;;;11.56;100.00
71889;BME280;59762;49.998;14.858;2023-10-31T12:23:17;95968.81;;;11.54;100.00
71889;BME280;59762;49.998;14.858;2023-10-31T12:25:52;95963.69;;;11.59;100.00
71889;BME280;59762;49.998;14.858;2023-10-31T12:28:22;95970.41;;;11.48;100.00
71889;BME280;59762;49.998;14.858;2023-10-31T12:30:49;95976.63;;;11.55;100.00
71889;BME280;59762;49.998;14.858;2023-10-31T12:33:16;95975.56;;;11.50;100.00
71889;BME280;59762;49.998;14.858;2023-10-31T12:35:42;95967.94;;;11.40;100.00
71889;BME280;59762;49.998;14.858;2023-10-31T12:38:12;95974.72;;;11.43;100.00
71889;BME280;59762;49.998;14.858;2023-10-31T12:40:40;95974.31;;;11.46;100.00
71889;BME280;59762;49.998;14.858;2023-10-31T12:43:07;95976.16;;;11.39;100.00
71889;BME280;59762;49.998;14.858;2023-10-31T12:45:32;95973.63;;;11.31;100.00
71889;BME280;59762;49.998;14.858;2023-10-31T12:48:06;95978.16;;;11.37;100.00